sensor_id;sensor_type;location;lat;lon;timestamp;temperature;humidity
2893;DHT22;1456;51.840;12.184;2022-09-09T00:04:32;14.30;99.90
2893;DHT22;1456;51.840;12.184;2022-09-09T00:07:13;14.30;99.90
2893;DHT22;1456;51.840;12.184;2022-09-09T00:12:33;14.20;99.90
2893;DHT22;1456;51.840;12.184;2022-09-09T00:15:05;14.20;99.90
2893;DHT22;1456;51.840;12.184;2022-09-09T00:18:06;14.20;99.90
2893;DHT22;1456;51.840;12.184;2022-09-09T00:20:45;14.20;99.90
2893;DHT22;1456;51.840;12.184;2022-09-09T00:23:24;14.20;99.90
2893;DHT22;1456;51.840;12.184;2022-09-09T00:28:33;14.20;99.90
2893;DHT22;1456;51.840;12.184;2022-09-09T00:31:16;14.20;99.90
2893;DHT22;1456;51.840;12.184;2022-09-09T00:33:44;14.20;99.90
2893;DHT22;1456;51.840;12.184;2022-09-09T00:36:16;14.20;99.90
2893;DHT22;1456;51.840;12.184;2022-09-09T00:38:48;14.20;99.90
2893;DHT22;1456;51.840;12.184;2022-09-09T00:53:35;14.10;99.90
2893;DHT22;1456;51.840;12.184;2022-09-09T00:56:13;14.00;99.90
2893;DHT22;1456;51.840;12.184;2022-09-09T00:59:00;14.00;99.90
2893;DHT22;1456;51.840;12.184;2022-09-09T01:01:29;14.00;99.90
2893;DHT22;1456;51.840;12.184;2022-09-09T01:03:56;13.90;99.90
2893;DHT22;1456;51.840;12.184;2022-09-09T01:06:38;13.80;99.90
2893;DHT22;1456;51.840;12.184;2022-09-09T01:12:25;13.70;99.90
2893;DHT22;1456;51.840;12.184;2022-09-09T01:15:03;13.70;99.90
2893;DHT22;1456;51.840;12.184;2022-09-09T01:28:49;13.70;99.90
2893;DHT22;1456;51.840;12.184;2022-09-09T01:31:23;13.60;99.90
2893;DHT22;1456;51.840;12.184;2022-09-09T01:33:51;13.60;99.90
2893;DHT22;1456;51.840;12.184;2022-09-09T01:36:24;13.60;99.90
2893;DHT22;1456;51.840;12.184;2022-09-09T01:38:52;13.60;99.90
2893;DHT22;1456;51.840;12.184;2022-09-09T01:41:21;13.60;99.90
2893;DHT22;1456;51.840;12.184;2022-09-09T01:43:48;13.60;99.90
2893;DHT22;1456;51.840;12.184;2022-09-09T01:46:14;13.60;99.90
2893;DHT22;1456;51.840;12.184;2022-09-09T01:48:41;13.60;99.90
2893;DHT22;1456;51.840;12.184;2022-09-09T01:51:08;13.60;99.90
2893;DHT22;1456;51.840;12.184;2022-09-09T01:53:37;13.60;99.90
2893;DHT22;1456;51.840;12.184;2022-09-09T01:56:13;13.60;99.90
2893;DHT22;1456;51.840;12.184;2022-09-09T01:58:48;13.60;99.90
2893;DHT22;1456;51.840;12.184;2022-09-09T02:04:04;13.60;99.90
2893;DHT22;1456;51.840;12.184;2022-09-09T02:06:37;13.60;99.90
2893;DHT22;1456;51.840;12.184;2022-09-09T02:09:07;13.50;99.90
2893;DHT22;1456;51.840;12.184;2022-09-09T02:11:37;13.50;99.90
2893;DHT22;1456;51.840;12.184;2022-09-09T02:14:12;13.50;99.90
2893;DHT22;1456;51.840;12.184;2022-09-09T02:16:49;13.50;99.90
2893;DHT22;1456;51.840;12.184;2022-09-09T02:19:32;13.50;99.90
2893;DHT22;1456;51.840;12.184;2022-09-09T02:22:01;13.40;99.90
2893;DHT22;1456;51.840;12.184;2022-09-09T02:24:33;13.40;99.90
2893;DHT22;1456;51.840;12.184;2022-09-09T02:27:02;13.40;99.90
2893;DHT22;1456;51.840;12.184;2022-09-09T02:29:41;13.40;99.90
2893;DHT22;1456;51.840;12.184;2022-09-09T02:32:17;13.40;99.90
2893;DHT22;1456;51.840;12.184;2022-09-09T02:34:53;13.30;99.90
2893;DHT22;1456;51.840;12.184;2022-09-09T02:37:27;13.30;99.90
2893;DHT22;1456;51.840;12.184;2022-09-09T02:39:54;13.30;99.90
2893;DHT22;1456;51.840;12.184;2022-09-09T02:42:20;13.30;99.90
2893;DHT22;1456;51.840;12.184;2022-09-09T02:44:50;13.30;99.90
2893;DHT22;1456;51.840;12.184;2022-09-09T02:47:35;13.30;99.90
2893;DHT22;1456;51.840;12.184;2022-09-09T02:50:21;13.30;99.90
2893;DHT22;1456;51.840;12.184;2022-09-09T02:55:42;13.30;99.90
2893;DHT22;1456;51.840;12.184;2022-09-09T02:58:13;13.30;99.90
2893;DHT22;1456;51.840;12.184;2022-09-09T03:00:44;13.30;99.90
2893;DHT22;1456;51.840;12.184;2022-09-09T03:03:12;13.30;99.90
2893;DHT22;1456;51.840;12.184;2022-09-09T03:05:38;13.30;99.90
2893;DHT22;1456;51.840;12.184;2022-09-09T03:08:06;13.30;99.90
2893;DHT22;1456;51.840;12.184;2022-09-09T03:10:32;13.30;99.90
2893;DHT22;1456;51.840;12.184;2022-09-09T03:12:58;13.20;99.90
2893;DHT22;1456;51.840;12.184;2022-09-09T03:15:24;13.20;99.90
2893;DHT22;1456;51.840;12.184;2022-09-09T03:17:54;13.30;99.90
2893;DHT22;1456;51.840;12.184;2022-09-09T03:20:20;13.30;99.90
2893;DHT22;1456;51.840;12.184;2022-09-09T03:22:55;13.30;99.90
2893;DHT22;1456;51.840;12.184;2022-09-09T03:25:24;13.30;99.90
2893;DHT22;1456;51.840;12.184;2022-09-09T03:27:50;13.30;99.90
2893;DHT22;1456;51.840;12.184;2022-09-09T03:30:21;13.30;99.90
2893;DHT22;1456;51.840;12.184;2022-09-09T03:32:47;13.40;99.90
2893;DHT22;1456;51.840;12.184;2022-09-09T03:35:19;13.40;99.90
2893;DHT22;1456;51.840;12.184;2022-09-09T03:37:47;13.40;99.90
2893;DHT22;1456;51.840;12.184;2022-09-09T03:40:13;13.50;99.90
2893;DHT22;1456;51.840;12.184;2022-09-09T03:42:39;13.50;99.90
2893;DHT22;1456;51.840;12.184;2022-09-09T03:45:07;13.60;99.90
2893;DHT22;1456;51.840;12.184;2022-09-09T03:47:34;13.50;99.90
2893;DHT22;1456;51.840;12.184;2022-09-09T03:50:04;13.50;99.90
2893;DHT22;1456;51.840;12.184;2022-09-09T03:52:35;13.60;99.90
2893;DHT22;1456;51.840;12.184;2022-09-09T03:55:02;13.70;99.90
2893;DHT22;1456;51.840;12.184;2022-09-09T03:57:29;13.80;99.90
2893;DHT22;1456;51.840;12.184;2022-09-09T03:59:57;13.90;99.90
2893;DHT22;1456;51.840;12.184;2022-09-09T04:02:25;13.90;99.90
2893;DHT22;1456;51.840;12.184;2022-09-09T04:04:50;13.90;99.90
2893;DHT22;1456;51.840;12.184;2022-09-09T04:07:16;13.90;99.90
2893;DHT22;1456;51.840;12.184;2022-09-09T04:09:42;13.90;99.90
2893;DHT22;1456;51.840;12.184;2022-09-09T04:12:08;13.90;99.90
2893;DHT22;1456;51.840;12.184;2022-09-09T04:14:37;13.90;99.90
2893;DHT22;1456;51.840;12.184;2022-09-09T04:17:03;13.90;99.90
2893;DHT22;1456;51.840;12.184;2022-09-09T04:19:32;13.80;99.90
2893;DHT22;1456;51.840;12.184;2022-09-09T04:21:58;13.60;99.90
2893;DHT22;1456;51.840;12.184;2022-09-09T04:24:24;13.50;99.90
2893;DHT22;1456;51.840;12.184;2022-09-09T04:26:53;13.40;99.90
2893;DHT22;1456;51.840;12.184;2022-09-09T04:29:20;13.60;99.90
2893;DHT22;1456;51.840;12.184;2022-09-09T04:31:45;13.60;99.90
2893;DHT22;1456;51.840;12.184;2022-09-09T04:34:11;13.60;99.90
2893;DHT22;1456;51.840;12.184;2022-09-09T04:36:37;13.60;99.90
2893;DHT22;1456;51.840;12.184;2022-09-09T04:39:03;13.70;99.90
2893;DHT22;1456;51.840;12.184;2022-09-09T04:41:29;13.70;99.90
2893;DHT22;1456;51.840;12.184;2022-09-09T04:43:56;13.60;99.90
2893;DHT22;1456;51.840;12.184;2022-09-09T04:46:23;13.70;99.90
2893;DHT22;1456;51.840;12.184;2022-09-09T04:48:50;13.70;99.90
2893;DHT22;1456;51.840;12.184;2022-09-09T04:51:17;13.70;99.90
2893;DHT22;1456;51.840;12.184;2022-09-09T04:53:44;13.80;99.90
2893;DHT22;1456;51.840;12.184;2022-09-09T04:56:14;13.70;99.90
2893;DHT22;1456;51.840;12.184;2022-09-09T04:58:41;13.70;99.90
2893;DHT22;1456;51.840;12.184;2022-09-09T05:01:27;13.80;99.90
2893;DHT22;1456;51.840;12.184;2022-09-09T05:03:54;13.90;99.90
2893;DHT22;1456;51.840;12.184;2022-09-09T05:06:21;14.10;99.90
2893;DHT22;1456;51.840;12.184;2022-09-09T05:08:47;14.20;99.90
2893;DHT22;1456;51.840;12.184;2022-09-09T05:11:15;14.40;99.90
2893;DHT22;1456;51.840;12.184;2022-09-09T05:13:43;14.50;99.90
2893;DHT22;1456;51.840;12.184;2022-09-09T05:16:13;14.70;99.90
2893;DHT22;1456;51.840;12.184;2022-09-09T05:18:42;14.80;99.90
2893;DHT22;1456;51.840;12.184;2022-09-09T05:21:13;15.00;99.90
2893;DHT22;1456;51.840;12.184;2022-09-09T05:23:39;15.10;99.90
2893;DHT22;1456;51.840;12.184;2022-09-09T05:26:07;15.20;99.90
2893;DHT22;1456;51.840;12.184;2022-09-09T05:28:34;15.20;99.90
2893;DHT22;1456;51.840;12.184;2022-09-09T05:31:04;15.10;99.90
2893;DHT22;1456;51.840;12.184;2022-09-09T05:33:31;14.90;99.90
2893;DHT22;1456;51.840;12.184;2022-09-09T05:36:09;14.80;99.90
2893;DHT22;1456;51.840;12.184;2022-09-09T05:38:37;14.90;99.90
2893;DHT22;1456;51.840;12.184;2022-09-09T05:41:05;14.90;99.90
2893;DHT22;1456;51.840;12.184;2022-09-09T05:43:33;15.00;99.90
2893;DHT22;1456;51.840;12.184;2022-09-09T05:46:09;15.10;99.90
2893;DHT22;1456;51.840;12.184;2022-09-09T05:48:38;15.10;99.90
2893;DHT22;1456;51.840;12.184;2022-09-09T05:51:06;15.10;99.90
2893;DHT22;1456;51.840;12.184;2022-09-09T05:53:34;15.20;99.90
2893;DHT22;1456;51.840;12.184;2022-09-09T05:58:33;15.20;99.90
2893;DHT22;1456;51.840;12.184;2022-09-09T06:01:04;15.20;99.90
2893;DHT22;1456;51.840;12.184;2022-09-09T06:03:29;15.20;99.90
2893;DHT22;1456;51.840;12.184;2022-09-09T06:05:59;15.20;99.90
2893;DHT22;1456;51.840;12.184;2022-09-09T06:08:26;15.30;99.90
2893;DHT22;1456;51.840;12.184;2022-09-09T06:10:52;15.40;99.90
2893;DHT22;1456;51.840;12.184;2022-09-09T06:13:18;15.40;99.90
2893;DHT22;1456;51.840;12.184;2022-09-09T06:15:51;15.30;99.90
2893;DHT22;1456;51.840;12.184;2022-09-09T06:18:18;15.30;99.90
2893;DHT22;1456;51.840;12.184;2022-09-09T06:21:03;15.40;99.90
2893;DHT22;1456;51.840;12.184;2022-09-09T06:23:30;15.30;99.90
2893;DHT22;1456;51.840;12.184;2022-09-09T06:26:07;15.30;99.90
2893;DHT22;1456;51.840;12.184;2022-09-09T06:28:35;15.40;99.90
2893;DHT22;1456;51.840;12.184;2022-09-09T06:31:07;15.50;99.90
2893;DHT22;1456;51.840;12.184;2022-09-09T06:33:41;15.70;99.90
2893;DHT22;1456;51.840;12.184;2022-09-09T06:36:12;15.90;99.90
2893;DHT22;1456;51.840;12.184;2022-09-09T06:38:39;16.10;99.90
2893;DHT22;1456;51.840;12.184;2022-09-09T06:41:09;16.10;99.90
2893;DHT22;1456;51.840;12.184;2022-09-09T06:43:35;16.10;99.90
2893;DHT22;1456;51.840;12.184;2022-09-09T06:46:06;16.20;99.90
2893;DHT22;1456;51.840;12.184;2022-09-09T06:48:34;16.20;99.90
2893;DHT22;1456;51.840;12.184;2022-09-09T06:51:04;16.30;99.90
2893;DHT22;1456;51.840;12.184;2022-09-09T06:53:31;16.40;99.90
2893;DHT22;1456;51.840;12.184;2022-09-09T06:55:59;16.60;99.90
2893;DHT22;1456;51.840;12.184;2022-09-09T06:58:26;16.90;99.90
2893;DHT22;1456;51.840;12.184;2022-09-09T07:00:53;17.20;99.90
2893;DHT22;1456;51.840;12.184;2022-09-09T07:03:18;17.40;99.90
2893;DHT22;1456;51.840;12.184;2022-09-09T07:05:53;17.30;99.90
2893;DHT22;1456;51.840;12.184;2022-09-09T07:08:19;17.10;99.90
2893;DHT22;1456;51.840;12.184;2022-09-09T07:10:50;16.90;99.90
2893;DHT22;1456;51.840;12.184;2022-09-09T07:13:16;16.90;99.90
2893;DHT22;1456;51.840;12.184;2022-09-09T07:15:44;17.10;99.90
2893;DHT22;1456;51.840;12.184;2022-09-09T07:18:09;17.20;99.90
2893;DHT22;1456;51.840;12.184;2022-09-09T07:20:35;17.20;99.90
2893;DHT22;1456;51.840;12.184;2022-09-09T07:23:01;17.20;99.90
2893;DHT22;1456;51.840;12.184;2022-09-09T07:25:27;17.50;99.90
2893;DHT22;1456;51.840;12.184;2022-09-09T07:27:56;17.20;99.90
2893;DHT22;1456;51.840;12.184;2022-09-09T07:30:21;17.30;99.90
2893;DHT22;1456;51.840;12.184;2022-09-09T07:32:47;17.50;99.90
2893;DHT22;1456;51.840;12.184;2022-09-09T07:35:15;17.60;99.90
2893;DHT22;1456;51.840;12.184;2022-09-09T07:37:40;17.70;99.90
2893;DHT22;1456;51.840;12.184;2022-09-09T07:40:07;17.80;99.90
2893;DHT22;1456;51.840;12.184;2022-09-09T07:42:33;18.10;99.90
2893;DHT22;1456;51.840;12.184;2022-09-09T07:44:59;18.20;99.90
2893;DHT22;1456;51.840;12.184;2022-09-09T07:47:25;18.30;99.90
2893;DHT22;1456;51.840;12.184;2022-09-09T07:49:51;18.50;99.90
2893;DHT22;1456;51.840;12.184;2022-09-09T07:52:19;18.70;99.90
2893;DHT22;1456;51.840;12.184;2022-09-09T07:54:46;19.00;99.90
2893;DHT22;1456;51.840;12.184;2022-09-09T07:57:12;19.20;99.90
2893;DHT22;1456;51.840;12.184;2022-09-09T07:59:38;19.30;99.90
2893;DHT22;1456;51.840;12.184;2022-09-09T08:02:04;19.30;99.90
2893;DHT22;1456;51.840;12.184;2022-09-09T08:04:30;19.40;99.90
2893;DHT22;1456;51.840;12.184;2022-09-09T08:06:58;19.50;99.90
2893;DHT22;1456;51.840;12.184;2022-09-09T08:09:25;19.70;99.90
2893;DHT22;1456;51.840;12.184;2022-09-09T08:11:52;19.80;99.90
2893;DHT22;1456;51.840;12.184;2022-09-09T08:14:18;20.00;99.90
2893;DHT22;1456;51.840;12.184;2022-09-09T08:16:46;20.10;99.90
2893;DHT22;1456;51.840;12.184;2022-09-09T08:19:13;20.10;99.90
2893;DHT22;1456;51.840;12.184;2022-09-09T08:21:42;20.30;99.90
2893;DHT22;1456;51.840;12.184;2022-09-09T08:24:10;20.30;99.90
2893;DHT22;1456;51.840;12.184;2022-09-09T08:26:54;20.30;99.90
2893;DHT22;1456;51.840;12.184;2022-09-09T08:29:24;20.60;99.90
2893;DHT22;1456;51.840;12.184;2022-09-09T08:31:52;20.90;99.90
2893;DHT22;1456;51.840;12.184;2022-09-09T08:34:20;20.90;99.90
2893;DHT22;1456;51.840;12.184;2022-09-09T08:36:47;20.90;99.90
2893;DHT22;1456;51.840;12.184;2022-09-09T08:39:14;21.00;99.90
2893;DHT22;1456;51.840;12.184;2022-09-09T08:58:12;21.00;99.90
2893;DHT22;1456;51.840;12.184;2022-09-09T09:03:58;21.10;99.90
2893;DHT22;1456;51.840;12.184;2022-09-09T09:09:08;21.50;99.90
2893;DHT22;1456;51.840;12.184;2022-09-09T09:11:57;21.60;99.90
2893;DHT22;1456;51.840;12.184;2022-09-09T09:14:29;21.80;99.90
2893;DHT22;1456;51.840;12.184;2022-09-09T09:17:05;22.00;99.90
2893;DHT22;1456;51.840;12.184;2022-09-09T09:19:35;22.10;99.90
2893;DHT22;1456;51.840;12.184;2022-09-09T09:27:37;22.50;99.90
2893;DHT22;1456;51.840;12.184;2022-09-09T09:30:21;22.50;99.90
2893;DHT22;1456;51.840;12.184;2022-09-09T09:33:02;22.30;99.90
2893;DHT22;1456;51.840;12.184;2022-09-09T09:35:29;22.40;99.90
2893;DHT22;1456;51.840;12.184;2022-09-09T09:37:55;22.30;99.90
2893;DHT22;1456;51.840;12.184;2022-09-09T09:40:22;22.10;99.90
2893;DHT22;1456;51.840;12.184;2022-09-09T09:42:57;22.00;99.90
2893;DHT22;1456;51.840;12.184;2022-09-09T09:45:28;22.10;99.90
2893;DHT22;1456;51.840;12.184;2022-09-09T09:48:03;22.40;99.90
2893;DHT22;1456;51.840;12.184;2022-09-09T09:50:58;22.70;99.90
2893;DHT22;1456;51.840;12.184;2022-09-09T09:53:30;23.00;99.90
2893;DHT22;1456;51.840;12.184;2022-09-09T09:56:04;23.10;99.90
2893;DHT22;1456;51.840;12.184;2022-09-09T09:58:32;23.20;99.90
2893;DHT22;1456;51.840;12.184;2022-09-09T10:01:00;23.30;99.90
2893;DHT22;1456;51.840;12.184;2022-09-09T10:03:36;23.80;99.90
2893;DHT22;1456;51.840;12.184;2022-09-09T10:06:04;24.10;99.90
2893;DHT22;1456;51.840;12.184;2022-09-09T10:08:43;24.30;99.90
2893;DHT22;1456;51.840;12.184;2022-09-09T10:22:31;24.10;99.90
2893;DHT22;1456;51.840;12.184;2022-09-09T10:33:23;25.40;99.90
2893;DHT22;1456;51.840;12.184;2022-09-09T10:36:20;25.70;97.70
2893;DHT22;1456;51.840;12.184;2022-09-09T10:38:50;25.30;97.40
2893;DHT22;1456;51.840;12.184;2022-09-09T10:44:57;25.70;96.40
2893;DHT22;1456;51.840;12.184;2022-09-09T10:47:48;25.50;98.80
2893;DHT22;1456;51.840;12.184;2022-09-09T10:50:35;25.90;98.20
2893;DHT22;1456;51.840;12.184;2022-09-09T10:56:10;24.10;98.60
2893;DHT22;1456;51.840;12.184;2022-09-09T10:59:30;24.10;99.90
2893;DHT22;1456;51.840;12.184;2022-09-09T11:02:25;23.80;99.50
2893;DHT22;1456;51.840;12.184;2022-09-09T11:04:40;23.60;99.90
2893;DHT22;1456;51.840;12.184;2022-09-09T11:07:11;24.10;99.80
2893;DHT22;1456;51.840;12.184;2022-09-09T11:09:42;24.30;99.90
2893;DHT22;1456;51.840;12.184;2022-09-09T11:12:14;24.20;99.90
2893;DHT22;1456;51.840;12.184;2022-09-09T11:17:26;23.70;99.90
2893;DHT22;1456;51.840;12.184;2022-09-09T11:19:57;23.40;99.90
2893;DHT22;1456;51.840;12.184;2022-09-09T11:22:33;23.20;99.70
2893;DHT22;1456;51.840;12.184;2022-09-09T11:25:07;23.30;99.90
2893;DHT22;1456;51.840;12.184;2022-09-09T11:41:37;24.10;99.90
2893;DHT22;1456;51.840;12.184;2022-09-09T11:44:34;24.20;99.90
2893;DHT22;1456;51.840;12.184;2022-09-09T11:46:59;23.70;99.90
2893;DHT22;1456;51.840;12.184;2022-09-09T11:51:57;23.60;99.90
2893;DHT22;1456;51.840;12.184;2022-09-09T11:56:54;23.10;99.90
2893;DHT22;1456;51.840;12.184;2022-09-09T11:59:24;22.90;99.90
2893;DHT22;1456;51.840;12.184;2022-09-09T12:02:14;22.80;99.90
2893;DHT22;1456;51.840;12.184;2022-09-09T12:04:54;22.50;99.90
2893;DHT22;1456;51.840;12.184;2022-09-09T12:07:24;22.20;99.90
2893;DHT22;1456;51.840;12.184;2022-09-09T12:09:51;22.00;99.90
2893;DHT22;1456;51.840;12.184;2022-09-09T12:12:23;22.50;99.90
2893;DHT22;1456;51.840;12.184;2022-09-09T12:17:26;26.20;99.90
2893;DHT22;1456;51.840;12.184;2022-09-09T12:20:22;28.30;99.90
2893;DHT22;1456;51.840;12.184;2022-09-09T12:30:56;32.00;81.50
2893;DHT22;1456;51.840;12.184;2022-09-09T12:33:24;31.10;86.80
2893;DHT22;1456;51.840;12.184;2022-09-09T12:35:59;30.00;85.30
2893;DHT22;1456;51.840;12.184;2022-09-09T12:38:35;30.50;90.00
2893;DHT22;1456;51.840;12.184;2022-09-09T12:41:01;31.10;84.00
2893;DHT22;1456;51.840;12.184;2022-09-09T12:43:28;31.40;84.80
2893;DHT22;1456;51.840;12.184;2022-09-09T12:46:09;30.80;83.20
2893;DHT22;1456;51.840;12.184;2022-09-09T12:48:40;30.00;84.50
2893;DHT22;1456;51.840;12.184;2022-09-09T12:51:24;28.70;87.90
2893;DHT22;1456;51.840;12.184;2022-09-09T12:53:51;28.60;90.30
2893;DHT22;1456;51.840;12.184;2022-09-09T12:56:22;28.80;87.70
2893;DHT22;1456;51.840;12.184;2022-09-09T12:58:50;28.90;88.70
2893;DHT22;1456;51.840;12.184;2022-09-09T13:01:25;30.00;90.80
2893;DHT22;1456;51.840;12.184;2022-09-09T13:03:52;32.00;84.10
2893;DHT22;1456;51.840;12.184;2022-09-09T13:06:22;31.80;81.80
2893;DHT22;1456;51.840;12.184;2022-09-09T13:08:49;31.20;87.60
2893;DHT22;1456;51.840;12.184;2022-09-09T13:11:36;30.90;87.80
2893;DHT22;1456;51.840;12.184;2022-09-09T13:14:03;30.90;87.80
2893;DHT22;1456;51.840;12.184;2022-09-09T13:16:34;31.50;85.40
2893;DHT22;1456;51.840;12.184;2022-09-09T13:19:08;31.70;82.20
2893;DHT22;1456;51.840;12.184;2022-09-09T13:21:35;31.30;81.40
2893;DHT22;1456;51.840;12.184;2022-09-09T13:24:04;30.20;80.50
2893;DHT22;1456;51.840;12.184;2022-09-09T13:26:31;29.10;80.00
2893;DHT22;1456;51.840;12.184;2022-09-09T13:29:16;28.40;82.60
2893;DHT22;1456;51.840;12.184;2022-09-09T13:31:45;30.20;82.70
2893;DHT22;1456;51.840;12.184;2022-09-09T13:34:13;30.40;77.20
2893;DHT22;1456;51.840;12.184;2022-09-09T13:36:39;30.50;83.70
2893;DHT22;1456;51.840;12.184;2022-09-09T13:39:16;31.30;74.60
2893;DHT22;1456;51.840;12.184;2022-09-09T13:41:45;32.20;75.90
2893;DHT22;1456;51.840;12.184;2022-09-09T13:44:27;33.60;70.70
2893;DHT22;1456;51.840;12.184;2022-09-09T13:47:05;33.00;69.70
2893;DHT22;1456;51.840;12.184;2022-09-09T13:49:32;33.40;73.20
2893;DHT22;1456;51.840;12.184;2022-09-09T13:52:14;33.50;66.20
2893;DHT22;1456;51.840;12.184;2022-09-09T13:54:49;32.50;65.70
2893;DHT22;1456;51.840;12.184;2022-09-09T13:57:22;30.20;70.70
2893;DHT22;1456;51.840;12.184;2022-09-09T13:59:48;29.80;77.90
2893;DHT22;1456;51.840;12.184;2022-09-09T14:02:17;31.10;73.70
2893;DHT22;1456;51.840;12.184;2022-09-09T14:04:44;32.60;68.50
2893;DHT22;1456;51.840;12.184;2022-09-09T14:07:16;33.40;66.10
2893;DHT22;1456;51.840;12.184;2022-09-09T14:09:42;34.40;70.20
2893;DHT22;1456;51.840;12.184;2022-09-09T14:12:11;34.80;63.10
2893;DHT22;1456;51.840;12.184;2022-09-09T14:14:37;34.60;61.80
2893;DHT22;1456;51.840;12.184;2022-09-09T14:17:03;34.40;64.10
2893;DHT22;1456;51.840;12.184;2022-09-09T14:19:29;34.40;63.60
2893;DHT22;1456;51.840;12.184;2022-09-09T14:21:59;34.50;63.60
2893;DHT22;1456;51.840;12.184;2022-09-09T14:24:25;33.80;62.30
2893;DHT22;1456;51.840;12.184;2022-09-09T14:26:51;31.40;60.20
2893;DHT22;1456;51.840;12.184;2022-09-09T14:29:17;29.80;66.00
2893;DHT22;1456;51.840;12.184;2022-09-09T14:31:42;29.10;67.40
2893;DHT22;1456;51.840;12.184;2022-09-09T14:34:09;28.50;68.20
2893;DHT22;1456;51.840;12.184;2022-09-09T14:36:36;27.90;68.10
2893;DHT22;1456;51.840;12.184;2022-09-09T14:39:04;27.30;69.70
2893;DHT22;1456;51.840;12.184;2022-09-09T14:41:30;27.20;71.80
2893;DHT22;1456;51.840;12.184;2022-09-09T14:43:55;26.90;72.10
2893;DHT22;1456;51.840;12.184;2022-09-09T14:46:22;26.80;75.70
2893;DHT22;1456;51.840;12.184;2022-09-09T14:48:49;26.40;75.80
2893;DHT22;1456;51.840;12.184;2022-09-09T14:51:23;26.10;75.50
2893;DHT22;1456;51.840;12.184;2022-09-09T14:53:54;26.10;78.80
2893;DHT22;1456;51.840;12.184;2022-09-09T14:56:23;26.30;75.70
2893;DHT22;1456;51.840;12.184;2022-09-09T14:58:49;26.30;75.20
2893;DHT22;1456;51.840;12.184;2022-09-09T15:01:18;26.10;76.20
2893;DHT22;1456;51.840;12.184;2022-09-09T15:03:52;25.90;74.70
2893;DHT22;1456;51.840;12.184;2022-09-09T15:06:19;25.70;79.10
2893;DHT22;1456;51.840;12.184;2022-09-09T15:08:46;25.50;80.20
2893;DHT22;1456;51.840;12.184;2022-09-09T15:11:13;25.20;77.70
2893;DHT22;1456;51.840;12.184;2022-09-09T15:13:40;25.10;78.60
2893;DHT22;1456;51.840;12.184;2022-09-09T15:16:16;25.20;79.20
2893;DHT22;1456;51.840;12.184;2022-09-09T15:18:43;25.60;81.20
2893;DHT22;1456;51.840;12.184;2022-09-09T15:21:14;25.80;75.80
2893;DHT22;1456;51.840;12.184;2022-09-09T15:23:42;25.40;77.80
2893;DHT22;1456;51.840;12.184;2022-09-09T15:26:08;24.90;78.70
2893;DHT22;1456;51.840;12.184;2022-09-09T15:28:35;24.90;80.90
2893;DHT22;1456;51.840;12.184;2022-09-09T15:31:10;24.70;77.90
2893;DHT22;1456;51.840;12.184;2022-09-09T15:33:37;24.50;78.50
2893;DHT22;1456;51.840;12.184;2022-09-09T15:36:20;24.20;81.60
2893;DHT22;1456;51.840;12.184;2022-09-09T15:38:47;24.00;83.90
2893;DHT22;1456;51.840;12.184;2022-09-09T15:41:14;23.80;83.00
2893;DHT22;1456;51.840;12.184;2022-09-09T15:43:46;23.70;88.10
2893;DHT22;1456;51.840;12.184;2022-09-09T15:51:30;23.40;86.70
2893;DHT22;1456;51.840;12.184;2022-09-09T15:53:59;23.40;90.00
2893;DHT22;1456;51.840;12.184;2022-09-09T15:56:27;23.30;89.80
2893;DHT22;1456;51.840;12.184;2022-09-09T15:58:55;23.30;90.80
2893;DHT22;1456;51.840;12.184;2022-09-09T16:01:20;23.20;90.90
2893;DHT22;1456;51.840;12.184;2022-09-09T16:03:47;23.20;91.10
2893;DHT22;1456;51.840;12.184;2022-09-09T16:06:18;23.30;91.40
2893;DHT22;1456;51.840;12.184;2022-09-09T16:08:45;23.40;90.50
2893;DHT22;1456;51.840;12.184;2022-09-09T16:11:20;23.60;90.70
2893;DHT22;1456;51.840;12.184;2022-09-09T16:13:47;23.30;85.20
2893;DHT22;1456;51.840;12.184;2022-09-09T16:16:16;23.30;87.70
2893;DHT22;1456;51.840;12.184;2022-09-09T16:18:44;23.30;91.20
2893;DHT22;1456;51.840;12.184;2022-09-09T16:21:19;23.20;87.90
2893;DHT22;1456;51.840;12.184;2022-09-09T16:23:45;23.20;90.10
2893;DHT22;1456;51.840;12.184;2022-09-09T16:26:12;23.00;90.00
2893;DHT22;1456;51.840;12.184;2022-09-09T16:28:38;23.00;89.20
2893;DHT22;1456;51.840;12.184;2022-09-09T16:31:09;22.90;87.70
2893;DHT22;1456;51.840;12.184;2022-09-09T16:33:38;23.00;92.10
2893;DHT22;1456;51.840;12.184;2022-09-09T16:36:08;23.10;93.60
2893;DHT22;1456;51.840;12.184;2022-09-09T16:38:37;23.00;94.10
2893;DHT22;1456;51.840;12.184;2022-09-09T16:41:04;22.90;90.90
2893;DHT22;1456;51.840;12.184;2022-09-09T16:43:34;22.70;92.70
2893;DHT22;1456;51.840;12.184;2022-09-09T16:46:01;22.60;92.60
2893;DHT22;1456;51.840;12.184;2022-09-09T16:48:32;22.40;94.00
2893;DHT22;1456;51.840;12.184;2022-09-09T16:51:06;22.20;96.00
2893;DHT22;1456;51.840;12.184;2022-09-09T16:53:33;22.10;95.40
2893;DHT22;1456;51.840;12.184;2022-09-09T16:56:04;22.10;97.20
2893;DHT22;1456;51.840;12.184;2022-09-09T16:58:30;21.90;97.30
2893;DHT22;1456;51.840;12.184;2022-09-09T17:00:59;21.80;98.10
2893;DHT22;1456;51.840;12.184;2022-09-09T17:03:27;21.70;99.70
2893;DHT22;1456;51.840;12.184;2022-09-09T17:05:52;21.80;99.90
2893;DHT22;1456;51.840;12.184;2022-09-09T17:08:18;21.80;99.90
2893;DHT22;1456;51.840;12.184;2022-09-09T17:10:43;21.70;99.10
2893;DHT22;1456;51.840;12.184;2022-09-09T17:13:09;21.70;99.90
2893;DHT22;1456;51.840;12.184;2022-09-09T17:15:42;21.70;99.90
2893;DHT22;1456;51.840;12.184;2022-09-09T17:18:12;21.80;99.90
2893;DHT22;1456;51.840;12.184;2022-09-09T17:20:39;21.70;99.40
2893;DHT22;1456;51.840;12.184;2022-09-09T17:23:06;21.50;97.00
2893;DHT22;1456;51.840;12.184;2022-09-09T17:25:31;21.30;96.50
2893;DHT22;1456;51.840;12.184;2022-09-09T17:27:58;21.20;99.90
2893;DHT22;1456;51.840;12.184;2022-09-09T17:30:25;21.00;97.10
2893;DHT22;1456;51.840;12.184;2022-09-09T17:32:51;20.70;96.80
2893;DHT22;1456;51.840;12.184;2022-09-09T17:35:17;20.50;97.00
2893;DHT22;1456;51.840;12.184;2022-09-09T17:37:43;20.30;96.40
2893;DHT22;1456;51.840;12.184;2022-09-09T17:40:10;20.20;97.90
2893;DHT22;1456;51.840;12.184;2022-09-09T17:42:36;20.10;98.10
2893;DHT22;1456;51.840;12.184;2022-09-09T17:45:02;19.90;97.80
2893;DHT22;1456;51.840;12.184;2022-09-09T17:47:28;19.70;99.60
2893;DHT22;1456;51.840;12.184;2022-09-09T17:49:56;19.60;98.80
2893;DHT22;1456;51.840;12.184;2022-09-09T17:52:21;19.50;99.90
2893;DHT22;1456;51.840;12.184;2022-09-09T17:54:48;19.40;99.90
2893;DHT22;1456;51.840;12.184;2022-09-09T17:57:15;19.30;99.90
2893;DHT22;1456;51.840;12.184;2022-09-09T17:59:43;19.30;99.90
2893;DHT22;1456;51.840;12.184;2022-09-09T18:02:10;19.20;99.90
2893;DHT22;1456;51.840;12.184;2022-09-09T18:04:36;19.10;99.90
2893;DHT22;1456;51.840;12.184;2022-09-09T18:07:02;19.00;99.90
2893;DHT22;1456;51.840;12.184;2022-09-09T18:09:28;18.80;99.90
2893;DHT22;1456;51.840;12.184;2022-09-09T18:11:56;18.80;99.90
2893;DHT22;1456;51.840;12.184;2022-09-09T18:14:25;18.80;99.90
2893;DHT22;1456;51.840;12.184;2022-09-09T18:16:51;18.80;99.90
2893;DHT22;1456;51.840;12.184;2022-09-09T18:19:19;18.70;99.90